sensor_id;sensor_type;location;lat;lon;timestamp;P1;durP1;ratioP1;P2;durP2;ratioP2
8466;SDS011;4270;48.148;11.648;2024-01-30T00:01:32;16.17;;;8.70;;
8466;SDS011;4270;48.148;11.648;2024-01-30T00:03:58;16.97;;;9.00;;
8466;SDS011;4270;48.148;11.648;2024-01-30T00:06:23;12.33;;;8.10;;
8466;SDS011;4270;48.148;11.648;2024-01-30T00:08:48;13.03;;;7.80;;
8466;SDS011;4270;48.148;11.648;2024-01-30T00:11:14;13.77;;;8.53;;
8466;SDS011;4270;48.148;11.648;2024-01-30T00:13:39;14.07;;;7.77;;
8466;SDS011;4270;48.148;11.648;2024-01-30T00:16:05;13.27;;;8.77;;
8466;SDS011;4270;48.148;11.648;2024-01-30T00:18:30;13.93;;;7.97;;
8466;SDS011;4270;48.148;11.648;2024-01-30T00:20:55;14.63;;;8.67;;
8466;SDS011;4270;48.148;11.648;2024-01-30T00:23:21;14.67;;;8.00;;
8466;SDS011;4270;48.148;11.648;2024-01-30T00:25:46;17.00;;;7.67;;
8466;SDS011;4270;48.148;11.648;2024-01-30T00:28:11;12.70;;;7.23;;
8466;SDS011;4270;48.148;11.648;2024-01-30T00:30:36;14.27;;;7.50;;
8466;SDS011;4270;48.148;11.648;2024-01-30T00:33:01;15.90;;;7.30;;
8466;SDS011;4270;48.148;11.648;2024-01-30T00:35:27;10.10;;;7.03;;
8466;SDS011;4270;48.148;11.648;2024-01-30T00:37:53;11.40;;;7.03;;
8466;SDS011;4270;48.148;11.648;2024-01-30T00:40:18;12.77;;;6.67;;
8466;SDS011;4270;48.148;11.648;2024-01-30T00:42:44;20.13;;;7.73;;
8466;SDS011;4270;48.148;11.648;2024-01-30T00:45:13;15.13;;;7.53;;
8466;SDS011;4270;48.148;11.648;2024-01-30T00:47:39;12.33;;;7.63;;
8466;SDS011;4270;48.148;11.648;2024-01-30T00:50:04;12.27;;;7.10;;
8466;SDS011;4270;48.148;11.648;2024-01-30T00:52:30;16.50;;;8.10;;
8466;SDS011;4270;48.148;11.648;2024-01-30T00:54:55;12.50;;;7.03;;
8466;SDS011;4270;48.148;11.648;2024-01-30T00:57:20;13.77;;;7.57;;
8466;SDS011;4270;48.148;11.648;2024-01-30T00:59:46;12.00;;;7.67;;
8466;SDS011;4270;48.148;11.648;2024-01-30T01:02:11;11.90;;;6.83;;
8466;SDS011;4270;48.148;11.648;2024-01-30T01:04:36;14.63;;;8.00;;
8466;SDS011;4270;48.148;11.648;2024-01-30T01:07:01;14.07;;;7.67;;
8466;SDS011;4270;48.148;11.648;2024-01-30T01:09:27;15.60;;;8.53;;
8466;SDS011;4270;48.148;11.648;2024-01-30T01:11:52;15.87;;;7.73;;
8466;SDS011;4270;48.148;11.648;2024-01-30T01:14:17;17.83;;;8.47;;
8466;SDS011;4270;48.148;11.648;2024-01-30T01:16:42;16.43;;;7.93;;
8466;SDS011;4270;48.148;11.648;2024-01-30T01:19:08;13.20;;;7.73;;
8466;SDS011;4270;48.148;11.648;2024-01-30T01:21:33;13.30;;;7.73;;
8466;SDS011;4270;48.148;11.648;2024-01-30T01:23:58;11.00;;;7.70;;
8466;SDS011;4270;48.148;11.648;2024-01-30T01:26:23;9.27;;;6.07;;
8466;SDS011;4270;48.148;11.648;2024-01-30T01:28:48;13.90;;;7.70;;
8466;SDS011;4270;48.148;11.648;2024-01-30T01:31:14;14.20;;;7.90;;
8466;SDS011;4270;48.148;11.648;2024-01-30T01:33:39;12.50;;;7.67;;
8466;SDS011;4270;48.148;11.648;2024-01-30T01:36:04;14.77;;;7.20;;
8466;SDS011;4270;48.148;11.648;2024-01-30T01:38:30;16.73;;;7.80;;
8466;SDS011;4270;48.148;11.648;2024-01-30T01:40:55;16.10;;;6.97;;
8466;SDS011;4270;48.148;11.648;2024-01-30T01:43:20;9.57;;;5.87;;
8466;SDS011;4270;48.148;11.648;2024-01-30T01:45:46;11.20;;;6.43;;
8466;SDS011;4270;48.148;11.648;2024-01-30T01:48:11;17.10;;;7.67;;
8466;SDS011;4270;48.148;11.648;2024-01-30T01:50:37;10.23;;;6.67;;
8466;SDS011;4270;48.148;11.648;2024-01-30T01:53:03;14.87;;;7.47;;
8466;SDS011;4270;48.148;11.648;2024-01-30T01:55:28;12.20;;;6.30;;
8466;SDS011;4270;48.148;11.648;2024-01-30T01:57:54;12.30;;;6.33;;
8466;SDS011;4270;48.148;11.648;2024-01-30T02:00:19;13.33;;;6.57;;
8466;SDS011;4270;48.148;11.648;2024-01-30T02:02:45;12.27;;;6.37;;
8466;SDS011;4270;48.148;11.648;2024-01-30T02:05:10;11.67;;;5.90;;
8466;SDS011;4270;48.148;11.648;2024-01-30T02:07:36;11.10;;;6.20;;
8466;SDS011;4270;48.148;11.648;2024-01-30T02:10:01;9.20;;;4.80;;
8466;SDS011;4270;48.148;11.648;2024-01-30T02:12:26;11.67;;;6.17;;
8466;SDS011;4270;48.148;11.648;2024-01-30T02:14:51;12.00;;;5.83;;
8466;SDS011;4270;48.148;11.648;2024-01-30T02:17:18;10.77;;;5.43;;
8466;SDS011;4270;48.148;11.648;2024-01-30T02:19:43;10.57;;;6.10;;
8466;SDS011;4270;48.148;11.648;2024-01-30T02:22:09;10.40;;;5.10;;
8466;SDS011;4270;48.148;11.648;2024-01-30T02:24:34;11.37;;;5.47;;
8466;SDS011;4270;48.148;11.648;2024-01-30T02:26:59;8.57;;;5.53;;
8466;SDS011;4270;48.148;11.648;2024-01-30T02:29:24;10.50;;;5.20;;
8466;SDS011;4270;48.148;11.648;2024-01-30T02:31:50;11.20;;;5.80;;
8466;SDS011;4270;48.148;11.648;2024-01-30T02:34:15;11.23;;;5.67;;
8466;SDS011;4270;48.148;11.648;2024-01-30T02:36:43;9.03;;;5.63;;
8466;SDS011;4270;48.148;11.648;2024-01-30T02:39:09;9.80;;;5.70;;
8466;SDS011;4270;48.148;11.648;2024-01-30T02:41:34;9.30;;;5.20;;
8466;SDS011;4270;48.148;11.648;2024-01-30T02:43:59;8.17;;;4.97;;
8466;SDS011;4270;48.148;11.648;2024-01-30T02:46:25;10.70;;;5.60;;
8466;SDS011;4270;48.148;11.648;2024-01-30T02:48:50;13.00;;;6.27;;
8466;SDS011;4270;48.148;11.648;2024-01-30T02:51:16;11.10;;;5.00;;
8466;SDS011;4270;48.148;11.648;2024-01-30T02:53:42;9.47;;;5.27;;
8466;SDS011;4270;48.148;11.648;2024-01-30T02:56:07;10.37;;;4.93;;
8466;SDS011;4270;48.148;11.648;2024-01-30T02:58:34;10.13;;;4.93;;
8466;SDS011;4270;48.148;11.648;2024-01-30T03:01:00;8.97;;;5.40;;
8466;SDS011;4270;48.148;11.648;2024-01-30T03:03:25;8.23;;;4.80;;
8466;SDS011;4270;48.148;11.648;2024-01-30T03:05:50;7.63;;;5.10;;
8466;SDS011;4270;48.148;11.648;2024-01-30T03:08:15;10.97;;;5.23;;
8466;SDS011;4270;48.148;11.648;2024-01-30T03:10:40;12.30;;;5.30;;
8466;SDS011;4270;48.148;11.648;2024-01-30T03:13:06;11.97;;;5.40;;
8466;SDS011;4270;48.148;11.648;2024-01-30T03:15:31;10.40;;;5.50;;
8466;SDS011;4270;48.148;11.648;2024-01-30T03:17:56;9.07;;;4.87;;
8466;SDS011;4270;48.148;11.648;2024-01-30T03:20:21;9.67;;;5.37;;
8466;SDS011;4270;48.148;11.648;2024-01-30T03:22:47;10.00;;;5.13;;
8466;SDS011;4270;48.148;11.648;2024-01-30T03:25:12;12.37;;;5.50;;
8466;SDS011;4270;48.148;11.648;2024-01-30T03:27:37;10.20;;;5.57;;
8466;SDS011;4270;48.148;11.648;2024-01-30T03:30:02;16.33;;;5.10;;
8466;SDS011;4270;48.148;11.648;2024-01-30T03:32:28;16.00;;;7.67;;
8466;SDS011;4270;48.148;11.648;2024-01-30T03:34:53;10.07;;;5.43;;
8466;SDS011;4270;48.148;11.648;2024-01-30T03:37:18;13.37;;;6.10;;
8466;SDS011;4270;48.148;11.648;2024-01-30T03:39:43;9.50;;;4.80;;
8466;SDS011;4270;48.148;11.648;2024-01-30T03:42:09;9.43;;;4.73;;
8466;SDS011;4270;48.148;11.648;2024-01-30T03:44:34;8.73;;;5.10;;
8466;SDS011;4270;48.148;11.648;2024-01-30T03:46:59;6.40;;;4.40;;
8466;SDS011;4270;48.148;11.648;2024-01-30T03:49:24;11.07;;;5.50;;
8466;SDS011;4270;48.148;11.648;2024-01-30T03:51:50;10.00;;;5.07;;
8466;SDS011;4270;48.148;11.648;2024-01-30T03:54:15;9.10;;;5.00;;
8466;SDS011;4270;48.148;11.648;2024-01-30T03:56:41;8.97;;;4.77;;
8466;SDS011;4270;48.148;11.648;2024-01-30T03:59:06;9.03;;;5.03;;
8466;SDS011;4270;48.148;11.648;2024-01-30T04:01:32;8.03;;;4.60;;
8466;SDS011;4270;48.148;11.648;2024-01-30T04:03:57;11.30;;;5.50;;
8466;SDS011;4270;48.148;11.648;2024-01-30T04:06:22;8.63;;;5.07;;
8466;SDS011;4270;48.148;11.648;2024-01-30T04:08:48;8.27;;;4.63;;
8466;SDS011;4270;48.148;11.648;2024-01-30T04:11:13;8.17;;;4.50;;
8466;SDS011;4270;48.148;11.648;2024-01-30T04:13:38;8.43;;;5.10;;
8466;SDS011;4270;48.148;11.648;2024-01-30T04:16:03;10.30;;;5.40;;
8466;SDS011;4270;48.148;11.648;2024-01-30T04:18:29;8.27;;;4.67;;
8466;SDS011;4270;48.148;11.648;2024-01-30T04:20:54;8.80;;;5.00;;
8466;SDS011;4270;48.148;11.648;2024-01-30T04:23:20;10.20;;;4.50;;
8466;SDS011;4270;48.148;11.648;2024-01-30T04:25:45;5.90;;;4.20;;
8466;SDS011;4270;48.148;11.648;2024-01-30T04:28:10;8.70;;;4.60;;
8466;SDS011;4270;48.148;11.648;2024-01-30T04:30:38;6.53;;;4.30;;
8466;SDS011;4270;48.148;11.648;2024-01-30T04:33:04;6.17;;;3.90;;
8466;SDS011;4270;48.148;11.648;2024-01-30T04:35:29;6.23;;;3.70;;
8466;SDS011;4270;48.148;11.648;2024-01-30T04:37:55;10.00;;;4.47;;
8466;SDS011;4270;48.148;11.648;2024-01-30T04:40:20;6.40;;;3.50;;
8466;SDS011;4270;48.148;11.648;2024-01-30T04:42:46;8.53;;;4.13;;
8466;SDS011;4270;48.148;11.648;2024-01-30T04:45:11;5.50;;;3.50;;
8466;SDS011;4270;48.148;11.648;2024-01-30T04:47:37;7.20;;;4.10;;
8466;SDS011;4270;48.148;11.648;2024-01-30T04:50:02;8.03;;;3.97;;
8466;SDS011;4270;48.148;11.648;2024-01-30T04:52:29;5.47;;;3.47;;
8466;SDS011;4270;48.148;11.648;2024-01-30T04:54:55;6.00;;;3.60;;
8466;SDS011;4270;48.148;11.648;2024-01-30T04:57:20;7.57;;;3.97;;
8466;SDS011;4270;48.148;11.648;2024-01-30T04:59:45;6.00;;;3.40;;
8466;SDS011;4270;48.148;11.648;2024-01-30T05:02:10;5.40;;;3.17;;
8466;SDS011;4270;48.148;11.648;2024-01-30T05:04:36;8.63;;;3.50;;
8466;SDS011;4270;48.148;11.648;2024-01-30T05:07:01;6.17;;;3.47;;
8466;SDS011;4270;48.148;11.648;2024-01-30T05:09:26;7.37;;;3.40;;
8466;SDS011;4270;48.148;11.648;2024-01-30T05:11:51;7.00;;;2.87;;
8466;SDS011;4270;48.148;11.648;2024-01-30T05:14:17;5.27;;;3.10;;
8466;SDS011;4270;48.148;11.648;2024-01-30T05:16:42;4.97;;;3.07;;
8466;SDS011;4270;48.148;11.648;2024-01-30T05:19:11;5.70;;;3.67;;
8466;SDS011;4270;48.148;11.648;2024-01-30T05:21:36;6.63;;;3.60;;
8466;SDS011;4270;48.148;11.648;2024-01-30T05:24:02;5.57;;;3.20;;
8466;SDS011;4270;48.148;11.648;2024-01-30T05:26:27;7.73;;;3.47;;
8466;SDS011;4270;48.148;11.648;2024-01-30T05:28:52;8.77;;;3.40;;
8466;SDS011;4270;48.148;11.648;2024-01-30T05:31:17;6.07;;;3.33;;
8466;SDS011;4270;48.148;11.648;2024-01-30T05:33:43;6.13;;;3.40;;
8466;SDS011;4270;48.148;11.648;2024-01-30T05:36:08;6.73;;;3.30;;
8466;SDS011;4270;48.148;11.648;2024-01-30T05:38:33;6.80;;;3.87;;
8466;SDS011;4270;48.148;11.648;2024-01-30T05:40:58;7.43;;;3.63;;
8466;SDS011;4270;48.148;11.648;2024-01-30T05:43:24;8.33;;;3.77;;
8466;SDS011;4270;48.148;11.648;2024-01-30T05:45:49;6.93;;;3.40;;
8466;SDS011;4270;48.148;11.648;2024-01-30T05:48:14;5.77;;;3.20;;
8466;SDS011;4270;48.148;11.648;2024-01-30T05:50:39;8.90;;;3.43;;
8466;SDS011;4270;48.148;11.648;2024-01-30T05:53:05;6.50;;;3.73;;
8466;SDS011;4270;48.148;11.648;2024-01-30T05:55:30;7.40;;;3.43;;
8466;SDS011;4270;48.148;11.648;2024-01-30T05:57:55;6.50;;;3.10;;
8466;SDS011;4270;48.148;11.648;2024-01-30T06:00:20;5.30;;;3.37;;
8466;SDS011;4270;48.148;11.648;2024-01-30T06:02:46;9.37;;;4.00;;
8466;SDS011;4270;48.148;11.648;2024-01-30T06:05:11;7.53;;;3.50;;
8466;SDS011;4270;48.148;11.648;2024-01-30T06:07:36;6.83;;;3.20;;
8466;SDS011;4270;48.148;11.648;2024-01-30T06:10:01;6.70;;;3.40;;
8466;SDS011;4270;48.148;11.648;2024-01-30T06:12:27;8.60;;;3.33;;
8466;SDS011;4270;48.148;11.648;2024-01-30T06:14:53;4.77;;;3.13;;
8466;SDS011;4270;48.148;11.648;2024-01-30T06:17:21;6.00;;;3.43;;
8466;SDS011;4270;48.148;11.648;2024-01-30T06:19:46;5.10;;;2.93;;
8466;SDS011;4270;48.148;11.648;2024-01-30T06:22:12;11.37;;;3.73;;
8466;SDS011;4270;48.148;11.648;2024-01-30T06:24:37;7.53;;;4.10;;
8466;SDS011;4270;48.148;11.648;2024-01-30T06:27:03;7.00;;;3.27;;
8466;SDS011;4270;48.148;11.648;2024-01-30T06:29:28;5.60;;;3.03;;
8466;SDS011;4270;48.148;11.648;2024-01-30T06:31:54;7.97;;;3.90;;
8466;SDS011;4270;48.148;11.648;2024-01-30T06:34:19;12.53;;;3.50;;
8466;SDS011;4270;48.148;11.648;2024-01-30T06:36:45;6.90;;;3.27;;
8466;SDS011;4270;48.148;11.648;2024-01-30T06:39:10;9.47;;;4.10;;
8466;SDS011;4270;48.148;11.648;2024-01-30T06:41:35;6.20;;;3.83;;
8466;SDS011;4270;48.148;11.648;2024-01-30T06:44:03;5.13;;;3.07;;
8466;SDS011;4270;48.148;11.648;2024-01-30T06:46:31;10.27;;;4.27;;
8466;SDS011;4270;48.148;11.648;2024-01-30T06:48:57;7.00;;;3.60;;
8466;SDS011;4270;48.148;11.648;2024-01-30T06:51:22;7.50;;;4.50;;
8466;SDS011;4270;48.148;11.648;2024-01-30T06:53:47;7.50;;;4.00;;
8466;SDS011;4270;48.148;11.648;2024-01-30T06:56:13;5.53;;;3.17;;
8466;SDS011;4270;48.148;11.648;2024-01-30T06:58:38;6.53;;;3.37;;
8466;SDS011;4270;48.148;11.648;2024-01-30T07:01:03;11.33;;;4.70;;
8466;SDS011;4270;48.148;11.648;2024-01-30T07:03:29;7.17;;;4.03;;
8466;SDS011;4270;48.148;11.648;2024-01-30T07:05:54;6.17;;;4.23;;
8466;SDS011;4270;48.148;11.648;2024-01-30T07:08:19;6.03;;;3.70;;
8466;SDS011;4270;48.148;11.648;2024-01-30T07:10:44;5.73;;;4.00;;
8466;SDS011;4270;48.148;11.648;2024-01-30T07:13:10;8.57;;;4.77;;
8466;SDS011;4270;48.148;11.648;2024-01-30T07:15:36;7.43;;;3.93;;
8466;SDS011;4270;48.148;11.648;2024-01-30T07:18:02;7.63;;;3.90;;
8466;SDS011;4270;48.148;11.648;2024-01-30T07:20:27;7.50;;;4.30;;
8466;SDS011;4270;48.148;11.648;2024-01-30T07:22:52;8.07;;;4.80;;
8466;SDS011;4270;48.148;11.648;2024-01-30T07:25:17;7.87;;;4.60;;
8466;SDS011;4270;48.148;11.648;2024-01-30T07:27:43;6.13;;;4.50;;
8466;SDS011;4270;48.148;11.648;2024-01-30T07:30:08;8.10;;;4.30;;
8466;SDS011;4270;48.148;11.648;2024-01-30T07:32:33;11.23;;;5.00;;
8466;SDS011;4270;48.148;11.648;2024-01-30T07:34:59;8.30;;;3.90;;
8466;SDS011;4270;48.148;11.648;2024-01-30T07:37:24;9.57;;;4.60;;
8466;SDS011;4270;48.148;11.648;2024-01-30T07:39:49;9.53;;;4.57;;
8466;SDS011;4270;48.148;11.648;2024-01-30T07:42:14;10.60;;;5.40;;
8466;SDS011;4270;48.148;11.648;2024-01-30T07:44:42;8.30;;;5.07;;
8466;SDS011;4270;48.148;11.648;2024-01-30T07:47:10;10.50;;;4.77;;
8466;SDS011;4270;48.148;11.648;2024-01-30T07:49:35;8.23;;;5.00;;
8466;SDS011;4270;48.148;11.648;2024-01-30T07:52:01;8.00;;;4.53;;
8466;SDS011;4270;48.148;11.648;2024-01-30T07:54:26;8.50;;;4.87;;
8466;SDS011;4270;48.148;11.648;2024-01-30T07:56:51;7.93;;;4.90;;
8466;SDS011;4270;48.148;11.648;2024-01-30T07:59:16;10.90;;;5.27;;
8466;SDS011;4270;48.148;11.648;2024-01-30T08:01:42;11.23;;;6.00;;
8466;SDS011;4270;48.148;11.648;2024-01-30T08:04:07;9.60;;;5.80;;
8466;SDS011;4270;48.148;11.648;2024-01-30T08:06:32;7.73;;;5.00;;
8466;SDS011;4270;48.148;11.648;2024-01-30T08:08:58;7.00;;;4.23;;
8466;SDS011;4270;48.148;11.648;2024-01-30T08:11:24;8.47;;;4.87;;
8466;SDS011;4270;48.148;11.648;2024-01-30T08:13:51;8.53;;;5.63;;
8466;SDS011;4270;48.148;11.648;2024-01-30T08:16:16;9.10;;;5.03;;
8466;SDS011;4270;48.148;11.648;2024-01-30T08:18:42;10.13;;;5.00;;
8466;SDS011;4270;48.148;11.648;2024-01-30T08:21:07;8.10;;;4.67;;
8466;SDS011;4270;48.148;11.648;2024-01-30T08:23:32;6.63;;;4.23;;
8466;SDS011;4270;48.148;11.648;2024-01-30T08:25:58;9.43;;;3.77;;
8466;SDS011;4270;48.148;11.648;2024-01-30T08:28:23;6.10;;;4.57;;
8466;SDS011;4270;48.148;11.648;2024-01-30T08:30:48;10.07;;;4.60;;
8466;SDS011;4270;48.148;11.648;2024-01-30T08:33:14;8.10;;;4.70;;
8466;SDS011;4270;48.148;11.648;2024-01-30T08:35:39;8.17;;;4.37;;
8466;SDS011;4270;48.148;11.648;2024-01-30T08:38:04;5.63;;;3.57;;
8466;SDS011;4270;48.148;11.648;2024-01-30T08:40:30;5.77;;;3.50;;
8466;SDS011;4270;48.148;11.648;2024-01-30T08:42:55;6.13;;;3.20;;
8466;SDS011;4270;48.148;11.648;2024-01-30T08:45:20;6.87;;;3.20;;
8466;SDS011;4270;48.148;11.648;2024-01-30T08:47:46;8.17;;;4.37;;
8466;SDS011;4270;48.148;11.648;2024-01-30T08:50:11;11.20;;;3.47;;
8466;SDS011;4270;48.148;11.648;2024-01-30T08:52:36;5.77;;;3.20;;
8466;SDS011;4270;48.148;11.648;2024-01-30T08:55:01;5.33;;;3.33;;
8466;SDS011;4270;48.148;11.648;2024-01-30T08:57:27;6.27;;;3.30;;
8466;SDS011;4270;48.148;11.648;2024-01-30T08:59:55;6.97;;;3.70;;
8466;SDS011;4270;48.148;11.648;2024-01-30T09:02:20;4.87;;;3.03;;
8466;SDS011;4270;48.148;11.648;2024-01-30T09:04:46;5.83;;;3.17;;
8466;SDS011;4270;48.148;11.648;2024-01-30T09:07:11;4.70;;;3.10;;
8466;SDS011;4270;48.148;11.648;2024-01-30T09:09:38;5.13;;;3.20;;
8466;SDS011;4270;48.148;11.648;2024-01-30T09:12:05;5.30;;;2.93;;
8466;SDS011;4270;48.148;11.648;2024-01-30T09:14:32;7.80;;;3.00;;
8466;SDS011;4270;48.148;11.648;2024-01-30T09:16:58;7.60;;;3.00;;
8466;SDS011;4270;48.148;11.648;2024-01-30T09:19:23;9.17;;;3.43;;
8466;SDS011;4270;48.148;11.648;2024-01-30T09:21:49;11.83;;;4.63;;
8466;SDS011;4270;48.148;11.648;2024-01-30T09:24:14;6.87;;;4.70;;
8466;SDS011;4270;48.148;11.648;2024-01-30T09:26:39;8.10;;;3.90;;
8466;SDS011;4270;48.148;11.648;2024-01-30T09:29:05;8.40;;;3.97;;
8466;SDS011;4270;48.148;11.648;2024-01-30T09:31:30;6.70;;;3.40;;
8466;SDS011;4270;48.148;11.648;2024-01-30T09:33:55;14.40;;;3.83;;
8466;SDS011;4270;48.148;11.648;2024-01-30T09:36:20;9.23;;;3.70;;
8466;SDS011;4270;48.148;11.648;2024-01-30T09:38:46;9.33;;;3.70;;
8466;SDS011;4270;48.148;11.648;2024-01-30T09:41:11;6.03;;;3.37;;
8466;SDS011;4270;48.148;11.648;2024-01-30T09:43:37;10.50;;;3.30;;
8466;SDS011;4270;48.148;11.648;2024-01-30T09:46:02;6.97;;;3.93;;
8466;SDS011;4270;48.148;11.648;2024-01-30T09:48:29;8.00;;;3.30;;
8466;SDS011;4270;48.148;11.648;2024-01-30T09:50:54;7.80;;;4.60;;
8466;SDS011;4270;48.148;11.648;2024-01-30T09:53:21;6.93;;;4.50;;
8466;SDS011;4270;48.148;11.648;2024-01-30T09:55:47;8.63;;;5.20;;
8466;SDS011;4270;48.148;11.648;2024-01-30T09:58:12;8.43;;;5.10;;
8466;SDS011;4270;48.148;11.648;2024-01-30T10:00:38;8.17;;;4.93;;
8466;SDS011;4270;48.148;11.648;2024-01-30T10:03:04;8.17;;;4.70;;
8466;SDS011;4270;48.148;11.648;2024-01-30T10:05:29;8.70;;;4.57;;
8466;SDS011;4270;48.148;11.648;2024-01-30T10:07:56;7.73;;;4.80;;
8466;SDS011;4270;48.148;11.648;2024-01-30T10:10:25;9.93;;;4.83;;
8466;SDS011;4270;48.148;11.648;2024-01-30T10:12:50;7.93;;;5.50;;
8466;SDS011;4270;48.148;11.648;2024-01-30T10:15:16;8.00;;;5.57;;
8466;SDS011;4270;48.148;11.648;2024-01-30T10:17:42;8.73;;;5.33;;
8466;SDS011;4270;48.148;11.648;2024-01-30T10:20:07;11.73;;;7.20;;
8466;SDS011;4270;48.148;11.648;2024-01-30T10:22:33;7.93;;;5.60;;
8466;SDS011;4270;48.148;11.648;2024-01-30T10:24:58;8.43;;;5.40;;
8466;SDS011;4270;48.148;11.648;2024-01-30T10:27:25;11.53;;;4.40;;
8466;SDS011;4270;48.148;11.648;2024-01-30T10:29:50;6.53;;;4.07;;
8466;SDS011;4270;48.148;11.648;2024-01-30T10:32:15;8.63;;;3.90;;
8466;SDS011;4270;48.148;11.648;2024-01-30T10:34:41;10.47;;;4.47;;
8466;SDS011;4270;48.148;11.648;2024-01-30T10:39:32;7.07;;;4.17;;
8466;SDS011;4270;48.148;11.648;2024-01-30T10:42:04;10.90;;;4.20;;
8466;SDS011;4270;48.148;11.648;2024-01-30T10:44:30;9.00;;;4.13;;
8466;SDS011;4270;48.148;11.648;2024-01-30T10:47:00;10.40;;;4.97;;
8466;SDS011;4270;48.148;11.648;2024-01-30T10:49:26;12.20;;;6.00;;
8466;SDS011;4270;48.148;11.648;2024-01-30T10:51:52;11.90;;;5.10;;
8466;SDS011;4270;48.148;11.648;2024-01-30T10:54:17;11.57;;;6.47;;
8466;SDS011;4270;48.148;11.648;2024-01-30T10:56:43;6.17;;;3.90;;
8466;SDS011;4270;48.148;11.648;2024-01-30T10:59:08;10.80;;;5.13;;
8466;SDS011;4270;48.148;11.648;2024-01-30T11:01:34;11.43;;;4.60;;
8466;SDS011;4270;48.148;11.648;2024-01-30T11:04:00;7.50;;;4.13;;
8466;SDS011;4270;48.148;11.648;2024-01-30T11:06:25;8.57;;;4.53;;
8466;SDS011;4270;48.148;11.648;2024-01-30T11:09:03;11.70;;;4.90;;
8466;SDS011;4270;48.148;11.648;2024-01-30T11:11:29;9.90;;;4.23;;
8466;SDS011;4270;48.148;11.648;2024-01-30T11:13:54;8.57;;;3.80;;
8466;SDS011;4270;48.148;11.648;2024-01-30T11:16:19;7.63;;;3.50;;
8466;SDS011;4270;48.148;11.648;2024-01-30T11:18:49;14.70;;;4.70;;
8466;SDS011;4270;48.148;11.648;2024-01-30T11:21:15;14.87;;;7.03;;
8466;SDS011;4270;48.148;11.648;2024-01-30T11:23:40;13.10;;;6.03;;
8466;SDS011;4270;48.148;11.648;2024-01-30T11:26:05;11.97;;;6.27;;
8466;SDS011;4270;48.148;11.648;2024-01-30T11:28:32;7.63;;;5.03;;
8466;SDS011;4270;48.148;11.648;2024-01-30T11:31:06;8.13;;;4.20;;
8466;SDS011;4270;48.148;11.648;2024-01-30T11:33:32;8.87;;;3.50;;
8466;SDS011;4270;48.148;11.648;2024-01-30T11:35:58;10.63;;;3.80;;
8466;SDS011;4270;48.148;11.648;2024-01-30T11:38:25;7.30;;;4.27;;
8466;SDS011;4270;48.148;11.648;2024-01-30T11:40:51;11.10;;;4.00;;
8466;SDS011;4270;48.148;11.648;2024-01-30T11:43:16;5.17;;;3.70;;
8466;SDS011;4270;48.148;11.648;2024-01-30T11:45:42;7.73;;;3.70;;
8466;SDS011;4270;48.148;11.648;2024-01-30T11:48:08;10.20;;;5.10;;
8466;SDS011;4270;48.148;11.648;2024-01-30T11:50:35;13.13;;;4.03;;
8466;SDS011;4270;48.148;11.648;2024-01-30T11:53:00;20.57;;;4.80;;
8466;SDS011;4270;48.148;11.648;2024-01-30T11:55:26;8.27;;;3.90;;
8466;SDS011;4270;48.148;11.648;2024-01-30T11:57:51;11.07;;;4.03;;
8466;SDS011;4270;48.148;11.648;2024-01-30T12:00:19;9.10;;;4.30;;
8466;SDS011;4270;48.148;11.648;2024-01-30T12:02:49;6.50;;;4.03;;
8466;SDS011;4270;48.148;11.648;2024-01-30T12:05:15;9.40;;;3.73;;
8466;SDS011;4270;48.148;11.648;2024-01-30T12:07:40;9.37;;;4.27;;
8466;SDS011;4270;48.148;11.648;2024-01-30T12:10:09;11.27;;;4.13;;
8466;SDS011;4270;48.148;11.648;2024-01-30T12:12:34;8.73;;;4.47;;
8466;SDS011;4270;48.148;11.648;2024-01-30T12:15:12;6.33;;;3.63;;
8466;SDS011;4270;48.148;11.648;2024-01-30T12:17:38;10.53;;;4.60;;
8466;SDS011;4270;48.148;11.648;2024-01-30T12:22:28;9.10;;;4.27;;
8466;SDS011;4270;48.148;11.648;2024-01-30T12:24:54;12.07;;;4.30;;
8466;SDS011;4270;48.148;11.648;2024-01-30T12:27:19;11.37;;;5.13;;
8466;SDS011;4270;48.148;11.648;2024-01-30T12:29:44;9.90;;;4.23;;
8466;SDS011;4270;48.148;11.648;2024-01-30T12:32:14;7.40;;;4.00;;
8466;SDS011;4270;48.148;11.648;2024-01-30T12:34:40;6.53;;;4.23;;
8466;SDS011;4270;48.148;11.648;2024-01-30T12:37:05;9.43;;;4.10;;
8466;SDS011;4270;48.148;11.648;2024-01-30T12:39:31;8.90;;;3.90;;
8466;SDS011;4270;48.148;11.648;2024-01-30T12:41:56;7.30;;;4.53;;
8466;SDS011;4270;48.148;11.648;2024-01-30T12:44:22;11.07;;;4.57;;
8466;SDS011;4270;48.148;11.648;2024-01-30T12:46:47;11.17;;;4.33;;
8466;SDS011;4270;48.148;11.648;2024-01-30T12:49:12;6.60;;;3.80;;
8466;SDS011;4270;48.148;11.648;2024-01-30T12:51:37;10.87;;;4.10;;
8466;SDS011;4270;48.148;11.648;2024-01-30T12:54:06;7.90;;;3.50;;
8466;SDS011;4270;48.148;11.648;2024-01-30T12:56:31;10.73;;;4.23;;
8466;SDS011;4270;48.148;11.648;2024-01-30T12:58:56;9.77;;;3.80;;
8466;SDS011;4270;48.148;11.648;2024-01-30T13:01:22;7.30;;;3.53;;
8466;SDS011;4270;48.148;11.648;2024-01-30T13:03:47;11.87;;;5.00;;
8466;SDS011;4270;48.148;11.648;2024-01-30T13:06:13;10.20;;;4.23;;
8466;SDS011;4270;48.148;11.648;2024-01-30T13:08:38;11.00;;;4.70;;
8466;SDS011;4270;48.148;11.648;2024-01-30T13:11:03;7.53;;;4.17;;
8466;SDS011;4270;48.148;11.648;2024-01-30T13:13:28;11.83;;;4.23;;
8466;SDS011;4270;48.148;11.648;2024-01-30T13:15:53;11.30;;;4.33;;
8466;SDS011;4270;48.148;11.648;2024-01-30T13:18:19;9.93;;;4.90;;
8466;SDS011;4270;48.148;11.648;2024-01-30T13:20:45;7.20;;;3.70;;
8466;SDS011;4270;48.148;11.648;2024-01-30T13:23:10;9.83;;;4.40;;
8466;SDS011;4270;48.148;11.648;2024-01-30T13:25:35;8.10;;;4.20;;
8466;SDS011;4270;48.148;11.648;2024-01-30T13:28:01;6.80;;;4.40;;
8466;SDS011;4270;48.148;11.648;2024-01-30T13:30:26;17.90;;;4.30;;
8466;SDS011;4270;48.148;11.648;2024-01-30T13:32:51;10.40;;;4.50;;
8466;SDS011;4270;48.148;11.648;2024-01-30T13:35:16;7.60;;;4.00;;
8466;SDS011;4270;48.148;11.648;2024-01-30T13:37:42;9.87;;;4.33;;
8466;SDS011;4270;48.148;11.648;2024-01-30T13:40:08;7.33;;;3.80;;
8466;SDS011;4270;48.148;11.648;2024-01-30T13:42:36;14.20;;;4.63;;
8466;SDS011;4270;48.148;11.648;2024-01-30T13:45:02;8.53;;;3.87;;
8466;SDS011;4270;48.148;11.648;2024-01-30T13:47:27;15.57;;;4.20;;
8466;SDS011;4270;48.148;11.648;2024-01-30T13:49:52;7.10;;;3.83;;
8466;SDS011;4270;48.148;11.648;2024-01-30T13:52:18;6.53;;;4.07;;
8466;SDS011;4270;48.148;11.648;2024-01-30T13:54:43;10.73;;;3.67;;
8466;SDS011;4270;48.148;11.648;2024-01-30T13:57:08;12.27;;;4.60;;
8466;SDS011;4270;48.148;11.648;2024-01-30T13:59:34;10.80;;;4.90;;
8466;SDS011;4270;48.148;11.648;2024-01-30T14:01:59;10.60;;;4.43;;
8466;SDS011;4270;48.148;11.648;2024-01-30T14:04:24;8.70;;;4.23;;
8466;SDS011;4270;48.148;11.648;2024-01-30T14:06:49;12.70;;;4.70;;
8466;SDS011;4270;48.148;11.648;2024-01-30T14:09:15;10.30;;;4.57;;
8466;SDS011;4270;48.148;11.648;2024-01-30T14:11:41;17.23;;;4.23;;
8466;SDS011;4270;48.148;11.648;2024-01-30T14:14:06;8.80;;;4.07;;
8466;SDS011;4270;48.148;11.648;2024-01-30T14:16:32;10.03;;;4.30;;
8466;SDS011;4270;48.148;11.648;2024-01-30T14:18:57;6.90;;;4.00;;
8466;SDS011;4270;48.148;11.648;2024-01-30T14:21:22;7.67;;;3.90;;
8466;SDS011;4270;48.148;11.648;2024-01-30T14:23:49;8.00;;;3.70;;
8466;SDS011;4270;48.148;11.648;2024-01-30T14:26:14;5.13;;;2.97;;
8466;SDS011;4270;48.148;11.648;2024-01-30T14:28:39;9.87;;;4.20;;
8466;SDS011;4270;48.148;11.648;2024-01-30T14:31:04;7.70;;;3.93;;
8466;SDS011;4270;48.148;11.648;2024-01-30T14:33:30;7.27;;;3.83;;
8466;SDS011;4270;48.148;11.648;2024-01-30T14:35:55;9.17;;;3.90;;
8466;SDS011;4270;48.148;11.648;2024-01-30T14:38:20;7.73;;;3.60;;
8466;SDS011;4270;48.148;11.648;2024-01-30T14:40:45;9.50;;;4.83;;
8466;SDS011;4270;48.148;11.648;2024-01-30T14:43:10;11.80;;;3.80;;
8466;SDS011;4270;48.148;11.648;2024-01-30T14:45:36;7.70;;;3.80;;
8466;SDS011;4270;48.148;11.648;2024-01-30T14:48:01;10.27;;;4.33;;
8466;SDS011;4270;48.148;11.648;2024-01-30T14:50:27;8.10;;;3.40;;